Stone Park, Illinois
Current Conditions -  °F | °C
As of 12:11 PM on Monday 24 Nov 2014 (Local Time) from KORD Reporting Station
Moderate Snow Moderate Snow  
Wind Chill: 18°   Ceiling: 1000
Heat Index: 31°   Visibility: 0.5mi
Dew Point: 29°   Wind: 22mph
Humidity: 92%   Direction: 250°WSW
Pressure: 29.32"   Gusts: 36mph
Location:  41.91°N, 87.88°W
Report Text: KORD 241811Z 25019G31KT 1/2SM R10L/3000V4000FT SN FZFG VV010 M01/M02 A2932 RMK AO2 PK WND 25033/1801 P0001 T10061017
Loading
Personal Weather Stations






























Interactive Weather Map New forecast layout! Learn more

10-Day Weather Forecast

Advertisements
Track Severe Weather on mobile